Wetterstation Oberdrees
Wetterdaten: aktuell Sonntag, 26.09.2021 03:25
Datum Zeit Temp. A. Feuchte A. Luftdruck Regen Wind Richtung Richtung Taupunkt Windchill Windben
26.09.2021 03:25 16,7 C 84 % 1015,4 hPa 0,0 l/m 0,0 km/h (0 Bft) S 188 14,0 C 16,7 C 1,6 km/h (1 Bft)
26.09.2021 03:20 16,8 C 84 % 1015,3 hPa 0,0 l/m 0,4 km/h (0 Bft) S 189 14,1 C 16,8 C 1,6 km/h (1 Bft)
26.09.2021 03:15 16,7 C 84 % 1015,4 hPa 0,0 l/m 0,1 km/h (0 Bft) S 188 14,0 C 16,7 C 1,6 km/h (1 Bft)
26.09.2021 03:10 16,8 C 83 % 1015,4 hPa 0,0 l/m 0,6 km/h (0 Bft) S 188 13,9 C 16,8 C 3,2 km/h (1 Bft)
26.09.2021 03:05 16,9 C 82 % 1015,3 hPa 0,0 l/m 0,5 km/h (0 Bft) S 189 13,8 C 16,9 C 3,2 km/h (1 Bft)
26.09.2021 03:00 17,1 C 82 % 1015,3 hPa 0,0 l/m 0,4 km/h (0 Bft) S 189 14,0 C 17,1 C 3,2 km/h (1 Bft)
26.09.2021 02:55 17,2 C 81 % 1015,4 hPa 0,0 l/m 1,1 km/h (1 Bft) S 189 13,9 C 17,2 C 4,8 km/h (1 Bft)
26.09.2021 02:50 17,4 C 81 % 1015,4 hPa 0,0 l/m 0,3 km/h (0 Bft) S 189 14,1 C 17,4 C 4,8 km/h (1 Bft)
26.09.2021 02:45 17,6 C 80 % 1015,5 hPa 0,0 l/m 1,4 km/h (1 Bft) S 188 14,1 C 17,6 C 4,8 km/h (1 Bft)
26.09.2021 02:40 17,5 C 81 % 1015,5 hPa 0,0 l/m 1,4 km/h (1 Bft) O-SO 121 14,2 C 17,5 C 8,0 km/h (2 Bft)
26.09.2021 02:35 17,2 C 82 % 1015,5 hPa 0,0 l/m 2,3 km/h (1 Bft) O-NO 78 14,1 C 17,2 C 4,8 km/h (1 Bft)
26.09.2021 02:30 16,9 C 82 % 1015,5 hPa 0,0 l/m 2,7 km/h (1 Bft) O 87 13,8 C 16,9 C 6,4 km/h (2 Bft)
26.09.2021 02:25 16,6 C 83 % 1015,5 hPa 0,0 l/m 2,6 km/h (1 Bft) O-NO 66 13,7 C 16,6 C 6,4 km/h (2 Bft)
26.09.2021 02:20 16,3 C 84 % 1015,6 hPa 0,0 l/m 0,6 km/h (0 Bft) O-NO 68 13,6 C 16,3 C 3,2 km/h (1 Bft)
26.09.2021 02:15 16,0 C 84 % 1015,6 hPa 0,0 l/m 1,7 km/h (1 Bft) O-NO 71 13,3 C 16,0 C 4,8 km/h (1 Bft)
26.09.2021 02:10 15,6 C 85 % 1015,6 hPa 0,0 l/m 0,0 km/h (0 Bft) S 171 13,1 C 15,6 C 0,0 km/h (0 Bft)
26.09.2021 02:05 15,4 C 86 % 1015,6 hPa 0,0 l/m 0,0 km/h (0 Bft) S 172 13,1 C 15,4 C 0,0 km/h (0 Bft)
26.09.2021 02:00 15,4 C 86 % 1015,6 hPa 0,0 l/m 0,0 km/h (0 Bft) S 172 13,1 C 15,4 C 0,0 km/h (0 Bft)
26.09.2021 01:55 15,4 C 86 % 1015,6 hPa 0,0 l/m 0,0 km/h (0 Bft) S 172 13,1 C 15,4 C 0,0 km/h (0 Bft)
26.09.2021 01:50 15,3 C 86 % 1015,7 hPa 0,0 l/m 0,0 km/h (0 Bft) S 172 13,0 C 15,3 C 0,0 km/h (0 Bft)
26.09.2021 01:45 15,2 C 85 % 1015,7 hPa 0,0 l/m 0,0 km/h (0 Bft) S 172 12,7 C 15,2 C 0,0 km/h (0 Bft)
26.09.2021 01:40 15,2 C 85 % 1015,6 hPa 0,0 l/m 0,0 km/h (0 Bft) S 172 12,7 C 15,2 C 0,0 km/h (0 Bft)
26.09.2021 01:35 15,1 C 86 % 1015,6 hPa 0,0 l/m 0,0 km/h (0 Bft) S 172 12,8 C 15,1 C 0,0 km/h (0 Bft)
26.09.2021 01:30 15,1 C 86 % 1015,7 hPa 0,0 l/m 0,0 km/h (0 Bft) S 172 12,8 C 15,1 C 0,0 km/h (0 Bft)
26.09.2021 01:25 15,2 C 85 % 1015,7 hPa 0,0 l/m 0,0 km/h (0 Bft) S 172 12,7 C 15,2 C 0,0 km/h (0 Bft)
26.09.2021 01:20 15,2 C 85 % 1015,7 hPa 0,0 l/m 0,0 km/h (0 Bft) S 172 12,7 C 15,2 C 0,0 km/h (0 Bft)
26.09.2021 01:15 15,2 C 85 % 1015,7 hPa 0,0 l/m 0,0 km/h (0 Bft) S 172 12,7 C 15,2 C 0,0 km/h (0 Bft)
26.09.2021 01:10 15,2 C 85 % 1015,8 hPa 0,0 l/m 0,0 km/h (0 Bft) S 172 12,7 C 15,2 C 0,0 km/h (0 Bft)
26.09.2021 01:05 15,2 C 85 % 1015,8 hPa 0,0 l/m 0,0 km/h (0 Bft) S 172 12,7 C 15,2 C 0,0 km/h (0 Bft)
26.09.2021 01:00 15,2 C 85 % 1015,8 hPa 0,0 l/m 0,0 km/h (0 Bft) S 172 12,7 C 15,2 C 0,0 km/h (0 Bft)
26.09.2021 00:55 15,2 C 85 % 1015,9 hPa 0,0 l/m 0,0 km/h (0 Bft) S 172 12,7 C 15,2 C 0,0 km/h (0 Bft)
26.09.2021 00:50 15,2 C 85 % 1015,9 hPa 0,0 l/m 0,0 km/h (0 Bft) S 172 12,7 C 15,2 C 0,0 km/h (0 Bft)
26.09.2021 00:45 15,2 C 85 % 1015,9 hPa 0,0 l/m 0,0 km/h (0 Bft) S 172 12,7 C 15,2 C 0,0 km/h (0 Bft)
26.09.2021 00:40 15,2 C 85 % 1016,1 hPa 0,0 l/m 0,0 km/h (0 Bft) S 172 12,7 C 15,2 C 0,0 km/h (0 Bft)
26.09.2021 00:35 15,2 C 85 % 1015,9 hPa 0,0 l/m 0,0 km/h (0 Bft) S 172 12,7 C 15,2 C 0,0 km/h (0 Bft)
26.09.2021 00:30 15,2 C 85 % 1016,0 hPa 0,0 l/m 0,0 km/h (0 Bft) S 172 12,7 C 15,2 C 0,0 km/h (0 Bft)
26.09.2021 00:25 15,2 C 85 % 1015,9 hPa 0,0 l/m 0,0 km/h (0 Bft) S 172 12,7 C 15,2 C 0,0 km/h (0 Bft)
26.09.2021 00:20 15,1 C 84 % 1016,1 hPa 0,0 l/m 0,0 km/h (0 Bft) S 172 12,4 C 15,1 C 0,0 km/h (0 Bft)
26.09.2021 00:15 14,9 C 84 % 1016,1 hPa 0,0 l/m 0,0 km/h (0 Bft) S 172 12,2 C 14,9 C 0,0 km/h (0 Bft)
26.09.2021 00:10 14,8 C 85 % 1016,1 hPa 0,0 l/m 0,0 km/h (0 Bft) S 172 12,3 C 14,8 C 0,0 km/h (0 Bft)
26.09.2021 00:05 14,7 C 85 % 1016,1 hPa 0,0 l/m 0,0 km/h (0 Bft) S 172 12,2 C 14,7 C 0,0 km/h (0 Bft)
26.09.2021 00:00 14,6 C 85 % 1016,2 hPa 0,0 l/m 0,0 km/h (0 Bft) S 172 12,1 C 14,6 C 0,0 km/h (0 Bft)
25.09.2021 23:55 14,4 C 86 % 1016,1 hPa 0,0 l/m 0,0 km/h (0 Bft) S 175 12,1 C 14,4 C 0,0 km/h (0 Bft)
25.09.2021 23:50 14,4 C 87 % 1016,1 hPa 0,0 l/m 0,0 km/h (0 Bft) S 175 12,3 C 14,4 C 0,0 km/h (0 Bft)
25.09.2021 23:45 14,2 C 87 % 1016,1 hPa 0,0 l/m 0,0 km/h (0 Bft) S 175 12,1 C 14,2 C 0,0 km/h (0 Bft)
25.09.2021 23:40 14,1 C 87 % 1016,1 hPa 0,0 l/m 0,0 km/h (0 Bft) S 175 12,0 C 14,1 C 0,0 km/h (0 Bft)
25.09.2021 23:35 14,0 C 87 % 1016,2 hPa 0,0 l/m 0,0 km/h (0 Bft) S 175 11,9 C 14,0 C 0,0 km/h (0 Bft)
25.09.2021 23:30 13,8 C 87 % 1016,2 hPa 0,0 l/m 0,0 km/h (0 Bft) N 0 11,7 C 13,8 C 0,0 km/h (0 Bft)
25.09.2021 23:25 13,7 C 87 % 1016,2 hPa 0,0 l/m 0,0 km/h (0 Bft) S 175 11,6 C 13,7 C 0,0 km/h (0 Bft)
25.09.2021 23:20 13,6 C 88 % 1016,1 hPa 0,0 l/m 0,0 km/h (0 Bft) S 175 11,6 C 13,6 C 0,0 km/h (0 Bft)
25.09.2021 23:15 13,6 C 87 % 1016,2 hPa 0,0 l/m 0,0 km/h (0 Bft) S 175 11,5 C 13,6 C 0,0 km/h (0 Bft)
25.09.2021 23:10 13,5 C 87 % 1016,2 hPa 0,0 l/m 0,0 km/h (0 Bft) S 175 11,4 C 13,5 C 0,0 km/h (0 Bft)
25.09.2021 23:05 13,4 C 87 % 1016,2 hPa 0,0 l/m 0,0 km/h (0 Bft) S 175 11,3 C 13,4 C 0,0 km/h (0 Bft)
25.09.2021 23:00 13,4 C 87 % 1016,2 hPa 0,0 l/m 0,0 km/h (0 Bft) S 175 11,3 C 13,4 C 0,0 km/h (0 Bft)
25.09.2021 22:55 13,4 C 87 % 1016,3 hPa 0,0 l/m 0,0 km/h (0 Bft) S 175 11,3 C 13,4 C 0,0 km/h (0 Bft)
25.09.2021 22:50 13,4 C 87 % 1016,3 hPa 0,0 l/m 0,0 km/h (0 Bft) S 175 11,3 C 13,4 C 0,0 km/h (0 Bft)
25.09.2021 22:45 13,4 C 87 % 1016,4 hPa 0,0 l/m 0,0 km/h (0 Bft) S 175 11,3 C 13,4 C 0,0 km/h (0 Bft)
25.09.2021 22:40 13,4 C 87 % 1016,4 hPa 0,0 l/m 0,0 km/h (0 Bft) S 175 11,3 C 13,4 C 0,0 km/h (0 Bft)
25.09.2021 22:35 13,5 C 86 % 1016,4 hPa 0,0 l/m 0,0 km/h (0 Bft) S 175 11,2 C 13,5 C 0,0 km/h (0 Bft)
25.09.2021 22:30 13,5 C 86 % 1016,4 hPa 0,0 l/m 0,0 km/h (0 Bft) S 175 11,2 C 13,5 C 0,0 km/h (0 Bft)
25.09.2021 22:25 13,6 C 86 % 1016,4 hPa 0,0 l/m 0,0 km/h (0 Bft) S 175 11,3 C 13,6 C 0,0 km/h (0 Bft)
25.09.2021 22:20 13,7 C 85 % 1016,4 hPa 0,0 l/m 0,0 km/h (0 Bft) S 175 11,2 C 13,7 C 0,0 km/h (0 Bft)
25.09.2021 22:15 13,9 C 85 % 1016,4 hPa 0,0 l/m 0,0 km/h (0 Bft) S 175 11,4 C 13,9 C 0,0 km/h (0 Bft)
25.09.2021 22:10 13,9 C 85 % 1016,4 hPa 0,0 l/m 0,0 km/h (0 Bft) S 175 11,4 C 13,9 C 0,0 km/h (0 Bft)
25.09.2021 22:05 14,0 C 84 % 1016,4 hPa 0,0 l/m 0,0 km/h (0 Bft) S 175 11,3 C 14,0 C 0,0 km/h (0 Bft)
25.09.2021 22:00 14,1 C 84 % 1016,4 hPa 0,0 l/m 0,0 km/h (0 Bft) S 175 11,4 C 14,1 C 0,0 km/h (0 Bft)
25.09.2021 21:55 14,3 C 83 % 1016,3 hPa 0,0 l/m 0,0 km/h (0 Bft) S 175 11,5 C 14,3 C 0,0 km/h (0 Bft)
25.09.2021 21:50 14,4 C 83 % 1016,3 hPa 0,0 l/m 0,0 km/h (0 Bft) S 175 11,5 C 14,4 C 0,0 km/h (0 Bft)
25.09.2021 21:45 14,6 C 83 % 1016,4 hPa 0,0 l/m 0,0 km/h (0 Bft) S 175 11,7 C 14,6 C 0,0 km/h (0 Bft)
25.09.2021 21:40 14,7 C 82 % 1016,4 hPa 0,0 l/m 0,0 km/h (0 Bft) S 175 11,7 C 14,7 C 0,0 km/h (0 Bft)
25.09.2021 21:35 15,0 C 81 % 1016,3 hPa 0,0 l/m 0,0 km/h (0 Bft) S 175 11,8 C 15,0 C 0,0 km/h (0 Bft)
25.09.2021 21:30 15,2 C 81 % 1016,4 hPa 0,0 l/m 0,0 km/h (0 Bft) S 175 12,0 C 15,2 C 0,0 km/h (0 Bft)
25.09.2021 21:25 15,3 C 80 % 1016,4 hPa 0,0 l/m 0,0 km/h (0 Bft) S 175 11,9 C 15,3 C 0,0 km/h (0 Bft)
25.09.2021 21:20 15,4 C 80 % 1016,3 hPa 0,0 l/m 0,0 km/h (0 Bft) S 175 12,0 C 15,4 C 0,0 km/h (0 Bft)
25.09.2021 21:15 15,6 C 79 % 1016,2 hPa 0,0 l/m 0,0 km/h (0 Bft) S 175 12,0 C 15,6 C 0,0 km/h (0 Bft)
25.09.2021 21:10 15,7 C 79 % 1016,2 hPa 0,0 l/m 0,0 km/h (0 Bft) S 175 12,1 C 15,7 C 0,0 km/h (0 Bft)
25.09.2021 21:05 15,9 C 78 % 1016,1 hPa 0,0 l/m 0,0 km/h (0 Bft) S 175 12,1 C 15,9 C 0,0 km/h (0 Bft)
25.09.2021 21:00 15,9 C 78 % 1016,2 hPa 0,0 l/m 0,0 km/h (0 Bft) S 175 12,1 C 15,9 C 0,0 km/h (0 Bft)
25.09.2021 20:55 16,0 C 77 % 1016,1 hPa 0,0 l/m 0,0 km/h (0 Bft) S 175 12,0 C 16,0 C 0,0 km/h (0 Bft)
25.09.2021 20:50 16,1 C 77 % 1016,1 hPa 0,0 l/m 0,0 km/h (0 Bft) S 175 12,1 C 16,1 C 0,0 km/h (0 Bft)
25.09.2021 20:45 16,2 C 78 % 1016,1 hPa 0,0 l/m 0,0 km/h (0 Bft) S 175 12,4 C 16,2 C 0,0 km/h (0 Bft)
25.09.2021 20:40 16,4 C 78 % 1016,2 hPa 0,0 l/m 0,0 km/h (0 Bft) S 175 12,6 C 16,4 C 0,0 km/h (0 Bft)
25.09.2021 20:35 16,6 C 78 % 1016,1 hPa 0,0 l/m 0,0 km/h (0 Bft) S 175 12,7 C 16,6 C 0,0 km/h (0 Bft)
25.09.2021 20:30 16,7 C 78 % 1016,1 hPa 0,0 l/m 0,0 km/h (0 Bft) S 175 12,8 C 16,7 C 0,0 km/h (0 Bft)
25.09.2021 20:25 16,9 C 78 % 1016,0 hPa 0,0 l/m 0,0 km/h (0 Bft) S 175 13,0 C 16,9 C 0,0 km/h (0 Bft)
25.09.2021 20:20 17,0 C 78 % 1015,9 hPa 0,0 l/m 0,0 km/h (0 Bft) S 175 13,1 C 17,0 C 0,0 km/h (0 Bft)
25.09.2021 20:15 17,2 C 77 % 1016,1 hPa 0,0 l/m 0,0 km/h (0 Bft) S 175 13,1 C 17,2 C 0,0 km/h (0 Bft)
25.09.2021 20:10 17,3 C 77 % 1016,1 hPa 0,0 l/m 0,0 km/h (0 Bft) S 175 13,2 C 17,3 C 0,0 km/h (0 Bft)
25.09.2021 20:05 17,5 C 77 % 1016,0 hPa 0,0 l/m 0,0 km/h (0 Bft) S 175 13,4 C 17,5 C 0,0 km/h (0 Bft)
25.09.2021 20:00 17,7 C 76 % 1015,9 hPa 0,0 l/m 0,0 km/h (0 Bft) S 175 13,4 C 17,7 C 0,0 km/h (0 Bft)
25.09.2021 19:55 17,9 C 75 % 1015,9 hPa 0,0 l/m 0,0 km/h (0 Bft) S 175 13,4 C 17,9 C 0,0 km/h (0 Bft)
25.09.2021 19:50 18,1 C 75 % 1015,9 hPa 0,0 l/m 0,1 km/h (0 Bft) S 177 13,6 C 18,1 C 1,6 km/h (1 Bft)
25.09.2021 19:45 18,4 C 74 % 1016,0 hPa 0,0 l/m 0,6 km/h (0 Bft) O-SO 112 13,7 C 18,4 C 4,8 km/h (1 Bft)
25.09.2021 19:40 18,8 C 73 % 1015,9 hPa 0,0 l/m 0,0 km/h (0 Bft) O-SO 121 13,9 C 18,8 C 0,0 km/h (0 Bft)
25.09.2021 19:35 19,3 C 72 % 1016,0 hPa 0,0 l/m 0,0 km/h (0 Bft) O-SO 121 14,1 C 19,3 C 0,0 km/h (0 Bft)
25.09.2021 19:30 19,8 C 71 % 1016,1 hPa 0,0 l/m 0,5 km/h (0 Bft) O-SO 121 14,4 C 19,8 C 3,2 km/h (1 Bft)
25.09.2021 19:25 20,3 C 69 % 1016,2 hPa 0,0 l/m 1,8 km/h (1 Bft) O-SO 121 14,4 C 20,3 C 3,2 km/h (1 Bft)
25.09.2021 19:20 20,9 C 67 % 1016,1 hPa 0,0 l/m 0,9 km/h (0 Bft) O-SO 123 14,5 C 20,9 C 3,2 km/h (1 Bft)
25.09.2021 19:15 21,4 C 64 % 1016,0 hPa 0,0 l/m 2,1 km/h (1 Bft) O-SO 123 14,3 C 21,4 C 4,8 km/h (1 Bft)
25.09.2021 19:10 21,9 C 61 % 1016,1 hPa 0,0 l/m 0,0 km/h (0 Bft) O-SO 121 14,0 C 21,9 C 0,0 km/h (0 Bft)
25.09.2021 19:05 22,2 C 60 % 1016,1 hPa 0,0 l/m 0,2 km/h (0 Bft) O-SO 121 14,1 C 22,2 C 3,2 km/h (1 Bft)
25.09.2021 19:00 22,4 C 60 % 1016,1 hPa 0,0 l/m 0,0 km/h (0 Bft) S-SW 200 14,2 C 22,4 C 0,0 km/h (0 Bft)
25.09.2021 18:55 22,6 C 60 % 1016,1 hPa 0,0 l/m 0,0 km/h (0 Bft) S-SW 200 14,4 C 22,6 C 1,6 km/h (1 Bft)
25.09.2021 18:50 22,6 C 61 % 1016,1 hPa 0,0 l/m 0,3 km/h (0 Bft) S-SW 200 14,7 C 22,6 C 3,2 km/h (1 Bft)
25.09.2021 18:45 22,4 C 60 % 1016,1 hPa 0,0 l/m 0,9 km/h (0 Bft) O-SO 112 14,2 C 22,4 C 4,8 km/h (1 Bft)
25.09.2021 18:40 22,4 C 59 % 1016,0 hPa 0,0 l/m 3,5 km/h (1 Bft) O-SO 108 14,0 C 22,4 C 6,4 km/h (2 Bft)
25.09.2021 18:35 22,6 C 59 % 1016,0 hPa 0,0 l/m 1,9 km/h (1 Bft) O-SO 102 14,2 C 22,6 C 6,4 km/h (2 Bft)
25.09.2021 18:30 22,6 C 59 % 1016,0 hPa 0,0 l/m 1,5 km/h (1 Bft) O 94 14,2 C 22,6 C 6,4 km/h (2 Bft)
25.09.2021 18:25 22,5 C 59 % 1016,0 hPa 0,0 l/m 1,8 km/h (1 Bft) SO 124 14,1 C 22,5 C 6,4 km/h (2 Bft)
25.09.2021 18:20 22,5 C 59 % 1016,1 hPa 0,0 l/m 2,7 km/h (1 Bft) SO 125 14,1 C 22,5 C 6,4 km/h (2 Bft)
25.09.2021 18:15 22,5 C 59 % 1016,1 hPa 0,0 l/m 2,2 km/h (1 Bft) O-SO 107 14,1 C 22,5 C 6,4 km/h (2 Bft)
25.09.2021 18:10 22,6 C 58 % 1016,1 hPa 0,0 l/m 3,4 km/h (1 Bft) S-SW 204 13,9 C 22,6 C 9,7 km/h (2 Bft)
25.09.2021 18:05 22,7 C 59 % 1015,9 hPa 0,0 l/m 2,3 km/h (1 Bft) O-SO 115 14,3 C 22,7 C 6,4 km/h (2 Bft)
25.09.2021 18:00 22,8 C 59 % 1016,0 hPa 0,0 l/m 1,8 km/h (1 Bft) SO 127 14,4 C 22,8 C 6,4 km/h (2 Bft)
25.09.2021 17:55 22,9 C 59 % 1016,0 hPa 0,0 l/m 1,7 km/h (1 Bft) O 98 14,5 C 22,9 C 6,4 km/h (2 Bft)
25.09.2021 17:50 23,1 C 59 % 1016,0 hPa 0,0 l/m 3,0 km/h (1 Bft) O-SO 105 14,6 C 23,1 C 9,7 km/h (2 Bft)
25.09.2021 17:45 23,3 C 59 % 1016,1 hPa 0,0 l/m 2,6 km/h (1 Bft) O-SO 105 14,8 C 23,3 C 6,4 km/h (2 Bft)
25.09.2021 17:40 23,4 C 59 % 1015,9 hPa 0,0 l/m 0,7 km/h (0 Bft) SO 128 14,9 C 23,4 C 3,2 km/h (1 Bft)
25.09.2021 17:35 23,5 C 59 % 1015,9 hPa 0,0 l/m 2,6 km/h (1 Bft) O-SO 117 15,0 C 23,5 C 6,4 km/h (2 Bft)
25.09.2021 17:30 23,7 C 59 % 1015,9 hPa 0,0 l/m 1,8 km/h (1 Bft) O-SO 110 15,2 C 23,7 C 4,8 km/h (1 Bft)
25.09.2021 17:25 23,8 C 59 % 1015,9 hPa 0,0 l/m 2,3 km/h (1 Bft) O-NO 65 15,3 C 23,8 C 8,0 km/h (2 Bft)
25.09.2021 17:20 24,0 C 60 % 1015,9 hPa 0,0 l/m 1,8 km/h (1 Bft) NO 48 15,7 C 24,0 C 8,0 km/h (2 Bft)
25.09.2021 17:15 24,2 C 60 % 1015,9 hPa 0,0 l/m 2,1 km/h (1 Bft) O-NO 78 15,9 C 24,2 C 6,4 km/h (2 Bft)
25.09.2021 17:10 24,3 C 60 % 1016,1 hPa 0,0 l/m 1,9 km/h (1 Bft) O-SO 123 16,0 C 24,3 C 9,7 km/h (2 Bft)
25.09.2021 17:05 24,3 C 60 % 1016,1 hPa 0,0 l/m 0,8 km/h (0 Bft) NO 53 16,0 C 24,3 C 4,8 km/h (1 Bft)
25.09.2021 17:00 24,2 C 60 % 1016,0 hPa 0,0 l/m 3,0 km/h (1 Bft) S 175 15,9 C 24,2 C 8,0 km/h (2 Bft)
25.09.2021 16:55 24,3 C 60 % 1016,1 hPa 0,0 l/m 1,7 km/h (1 Bft) O-SO 122 16,0 C 24,3 C 6,4 km/h (2 Bft)
25.09.2021 16:50 24,4 C 59 % 1016,2 hPa 0,0 l/m 3,2 km/h (1 Bft) O-SO 110 15,9 C 24,4 C 6,4 km/h (2 Bft)
25.09.2021 16:45 24,4 C 60 % 1016,1 hPa 0,0 l/m 0,9 km/h (0 Bft) O-SO 107 16,1 C 24,4 C 8,0 km/h (2 Bft)
25.09.2021 16:40 24,4 C 60 % 1016,2 hPa 0,0 l/m 3,5 km/h (1 Bft) O 94 16,1 C 24,4 C 9,7 km/h (2 Bft)
25.09.2021 16:35 24,4 C 60 % 1016,2 hPa 0,0 l/m 0,8 km/h (0 Bft) SO 145 16,1 C 24,4 C 6,4 km/h (2 Bft)
25.09.2021 16:30 24,3 C 59 % 1016,2 hPa 0,0 l/m 1,7 km/h (1 Bft) O 92 15,8 C 24,3 C 4,8 km/h (1 Bft)
25.09.2021 16:25 24,3 C 59 % 1016,2 hPa 0,0 l/m 2,8 km/h (1 Bft) O-SO 107 15,8 C 24,3 C 9,7 km/h (2 Bft)
25.09.2021 16:20 24,2 C 59 % 1016,2 hPa 0,0 l/m 2,3 km/h (1 Bft) SO 142 15,7 C 24,2 C 8,0 km/h (2 Bft)
25.09.2021 16:15 24,2 C 59 % 1016,2 hPa 0,0 l/m 2,7 km/h (1 Bft) O 93 15,7 C 24,2 C 9,7 km/h (2 Bft)
25.09.2021 16:10 24,1 C 60 % 1016,2 hPa 0,0 l/m 3,3 km/h (1 Bft) O-SO 109 15,8 C 24,1 C 11,3 km/h (2 Bft)
25.09.2021 16:05 24,2 C 59 % 1016,2 hPa 0,0 l/m 4,2 km/h (1 Bft) O-SO 109 15,7 C 24,2 C 11,3 km/h (2 Bft)
25.09.2021 16:00 24,1 C 60 % 1016,2 hPa 0,0 l/m 2,2 km/h (1 Bft) O-SO 123 15,8 C 24,1 C 9,7 km/h (2 Bft)
25.09.2021 15:55 24,1 C 60 % 1016,3 hPa 0,0 l/m 2,2 km/h (1 Bft) NO 43 15,8 C 24,1 C 6,4 km/h (2 Bft)
25.09.2021 15:50 24,1 C 61 % 1016,4 hPa 0,0 l/m 3,1 km/h (1 Bft) O 96 16,1 C 24,1 C 9,7 km/h (2 Bft)
25.09.2021 15:45 24,1 C 61 % 1016,6 hPa 0,0 l/m 3,4 km/h (1 Bft) O-SO 111 16,1 C 24,1 C 11,3 km/h (2 Bft)
25.09.2021 15:40 24,1 C 61 % 1016,6 hPa 0,0 l/m 1,2 km/h (1 Bft) O-SO 106 16,1 C 24,1 C 6,4 km/h (2 Bft)
25.09.2021 15:35 23,9 C 61 % 1016,6 hPa 0,0 l/m 2,3 km/h (1 Bft) O-SO 120 15,9 C 23,9 C 6,4 km/h (2 Bft)
25.09.2021 15:30 24,0 C 60 % 1016,7 hPa 0,0 l/m 4,4 km/h (1 Bft) O-SO 116 15,7 C 24,0 C 11,3 km/h (2 Bft)
25.09.2021 15:25 23,9 C 61 % 1016,7 hPa 0,0 l/m 0,7 km/h (0 Bft) O-SO 111 15,9 C 23,9 C 3,2 km/h (1 Bft)
25.09.2021 15:20 23,7 C 60 % 1016,8 hPa 0,0 l/m 3,3 km/h (1 Bft) O-SO 121 15,5 C 23,7 C 8,0 km/h (2 Bft)
25.09.2021 15:15 23,8 C 60 % 1016,7 hPa 0,0 l/m 3,7 km/h (1 Bft) NO 42 15,6 C 23,8 C 8,0 km/h (2 Bft)
25.09.2021 15:10 24,1 C 59 % 1016,8 hPa 0,0 l/m 2,1 km/h (1 Bft) NO 53 15,6 C 24,1 C 6,4 km/h (2 Bft)
25.09.2021 15:05 24,0 C 60 % 1016,9 hPa 0,0 l/m 2,6 km/h (1 Bft) O-SO 113 15,7 C 24,0 C 6,4 km/h (2 Bft)
25.09.2021 15:00 24,1 C 58 % 1016,9 hPa 0,0 l/m 3,6 km/h (1 Bft) O 96 15,3 C 24,1 C 9,7 km/h (2 Bft)
25.09.2021 14:55 24,3 C 56 % 1016,9 hPa 0,0 l/m 1,8 km/h (1 Bft) O-SO 114 14,9 C 24,3 C 6,4 km/h (2 Bft)
25.09.2021 14:50 24,4 C 56 % 1017,0 hPa 0,0 l/m 1,4 km/h (1 Bft) O 94 15,0 C 24,4 C 9,7 km/h (2 Bft)
25.09.2021 14:45 24,2 C 55 % 1017,1 hPa 0,0 l/m 1,1 km/h (1 Bft) SO 140 14,6 C 24,2 C 3,2 km/h (1 Bft)
25.09.2021 14:40 24,1 C 55 % 1017,0 hPa 0,0 l/m 2,3 km/h (1 Bft) O 101 14,5 C 24,1 C 11,3 km/h (2 Bft)
25.09.2021 14:35 24,0 C 56 % 1017,1 hPa 0,0 l/m 2,2 km/h (1 Bft) SO 144 14,7 C 24,0 C 9,7 km/h (2 Bft)
25.09.2021 14:30 23,7 C 57 % 1017,3 hPa 0,0 l/m 3,4 km/h (1 Bft) O 101 14,7 C 23,7 C 9,7 km/h (2 Bft)
25.09.2021 14:25 23,5 C 55 % 1017,3 hPa 0,0 l/m 3,1 km/h (1 Bft) O 100 13,9 C 23,5 C 11,3 km/h (2 Bft)
25.09.2021 14:20 23,4 C 55 % 1017,3 hPa 0,0 l/m 2,0 km/h (1 Bft) O-SO 110 13,8 C 23,4 C 6,4 km/h (2 Bft)
25.09.2021 14:15 23,1 C 58 % 1017,4 hPa 0,0 l/m 1,5 km/h (1 Bft) S-SW 212 14,4 C 23,1 C 6,4 km/h (2 Bft)
25.09.2021 14:10 22,8 C 60 % 1017,5 hPa 0,0 l/m 2,1 km/h (1 Bft) S-SW 211 14,6 C 22,8 C 8,0 km/h (2 Bft)
25.09.2021 14:05 22,6 C 61 % 1017,5 hPa 0,0 l/m 3,4 km/h (1 Bft) S-SW 209 14,7 C 22,6 C 11,3 km/h (2 Bft)
25.09.2021 14:00 22,5 C 62 % 1017,5 hPa 0,0 l/m 3,0 km/h (1 Bft) O-SO 103 14,8 C 22,5 C 11,3 km/h (2 Bft)
25.09.2021 13:55 22,3 C 64 % 1017,6 hPa 0,0 l/m 3,1 km/h (1 Bft) O-SO 111 15,2 C 22,3 C 6,4 km/h (2 Bft)
25.09.2021 13:50 22,1 C 65 % 1017,7 hPa 0,0 l/m 2,0 km/h (1 Bft) O-SO 105 15,2 C 22,1 C 6,4 km/h (2 Bft)
25.09.2021 13:45 21,9 C 65 % 1017,6 hPa 0,0 l/m 2,2 km/h (1 Bft) O-NO 73 15,0 C 21,9 C 8,0 km/h (2 Bft)
25.09.2021 13:40 21,9 C 64 % 1017,6 hPa 0,0 l/m 3,3 km/h (1 Bft) O-NO 60 14,8 C 21,9 C 11,3 km/h (2 Bft)
25.09.2021 13:35 22,1 C 64 % 1017,7 hPa 0,0 l/m 2,3 km/h (1 Bft) O-SO 115 15,0 C 22,1 C 8,0 km/h (2 Bft)
25.09.2021 13:30 22,4 C 63 % 1017,7 hPa 0,0 l/m 3,7 km/h (1 Bft) O-SO 105 15,0 C 22,4 C 9,7 km/h (2 Bft)
25.09.2021 13:25 22,5 C 63 % 1017,7 hPa 0,0 l/m 2,0 km/h (1 Bft) NO 45 15,1 C 22,5 C 6,4 km/h (2 Bft)
25.09.2021 13:20 22,4 C 65 % 1017,7 hPa 0,0 l/m 4,2 km/h (1 Bft) O 92 15,5 C 22,4 C 12,9 km/h (3 Bft)
25.09.2021 13:15 22,6 C 64 % 1017,7 hPa 0,0 l/m 1,8 km/h (1 Bft) NO 56 15,4 C 22,6 C 6,4 km/h (2 Bft)
25.09.2021 13:10 22,4 C 65 % 1017,9 hPa 0,0 l/m 1,5 km/h (1 Bft) O-SO 117 15,5 C 22,4 C 4,8 km/h (1 Bft)
25.09.2021 13:05 22,3 C 64 % 1017,9 hPa 0,0 l/m 1,8 km/h (1 Bft) S-SO 149 15,2 C 22,3 C 6,4 km/h (2 Bft)
25.09.2021 13:00 22,0 C 66 % 1018,0 hPa 0,0 l/m 0,9 km/h (0 Bft) NO 53 15,3 C 22,0 C 3,2 km/h (1 Bft)
25.09.2021 12:55 21,9 C 66 % 1018,0 hPa 0,0 l/m 2,0 km/h (1 Bft) NO 41 15,3 C 21,9 C 6,4 km/h (2 Bft)
25.09.2021 12:50 21,8 C 65 % 1018,0 hPa 0,0 l/m 2,1 km/h (1 Bft) O-SO 104 14,9 C 21,8 C 6,4 km/h (2 Bft)
25.09.2021 12:45 21,6 C 63 % 1018,0 hPa 0,0 l/m 1,6 km/h (1 Bft) S-SW 194 14,2 C 21,6 C 4,8 km/h (1 Bft)
25.09.2021 12:40 21,7 C 63 % 1018,0 hPa 0,0 l/m 2,5 km/h (1 Bft) S-SW 210 14,3 C 21,7 C 9,7 km/h (2 Bft)
25.09.2021 12:35 21,6 C 65 % 1018,0 hPa 0,0 l/m 1,6 km/h (1 Bft) O 88 14,7 C 21,6 C 6,4 km/h (2 Bft)
25.09.2021 12:30 21,2 C 67 % 1018,2 hPa 0,0 l/m 2,5 km/h (1 Bft) O-NO 70 14,8 C 21,2 C 9,7 km/h (2 Bft)
25.09.2021 12:25 21,0 C 68 % 1018,2 hPa 0,0 l/m 2,8 km/h (1 Bft) O-SO 123 14,9 C 21,0 C 6,4 km/h (2 Bft)
25.09.2021 12:20 21,0 C 69 % 1018,3 hPa 0,0 l/m 2,6 km/h (1 Bft) O-SO 122 15,1 C 21,0 C 4,8 km/h (1 Bft)
25.09.2021 12:15 21,0 C 69 % 1018,3 hPa 0,0 l/m 2,4 km/h (1 Bft) SO 131 15,1 C 21,0 C 8,0 km/h (2 Bft)
25.09.2021 12:10 21,0 C 69 % 1018,2 hPa 0,0 l/m 1,6 km/h (1 Bft) SO 126 15,1 C 21,0 C 6,4 km/h (2 Bft)
25.09.2021 12:05 20,8 C 70 % 1018,2 hPa 0,0 l/m 0,7 km/h (0 Bft) SO 139 15,1 C 20,8 C 4,8 km/h (1 Bft)
25.09.2021 12:00 20,8 C 69 % 1018,1 hPa 0,0 l/m 1,3 km/h (1 Bft) SO 138 14,9 C 20,8 C 4,8 km/h (1 Bft)
25.09.2021 11:55 20,6 C 72 % 1018,2 hPa 0,0 l/m 1,3 km/h (1 Bft) S-SW 197 15,4 C 20,6 C 4,8 km/h (1 Bft)
25.09.2021 11:50 20,2 C 72 % 1018,4 hPa 0,0 l/m 1,3 km/h (1 Bft) S-SO 153 15,0 C 20,2 C 4,8 km/h (1 Bft)
25.09.2021 11:45 19,8 C 73 % 1018,3 hPa 0,0 l/m 1,0 km/h (0 Bft) SO 143 14,8 C 19,8 C 3,2 km/h (1 Bft)
25.09.2021 11:40 19,7 C 73 % 1018,3 hPa 0,0 l/m 2,3 km/h (1 Bft) SO 130 14,7 C 19,7 C 6,4 km/h (2 Bft)
25.09.2021 11:35 19,6 C 74 % 1018,4 hPa 0,0 l/m 2,1 km/h (1 Bft) SO 130 14,8 C 19,6 C 6,4 km/h (2 Bft)
25.09.2021 11:30 19,2 C 75 % 1018,3 hPa 0,0 l/m 1,7 km/h (1 Bft) SO 142 14,7 C 19,2 C 4,8 km/h (1 Bft)
25.09.2021 11:25 19,1 C 75 % 1018,5 hPa 0,0 l/m 2,7 km/h (1 Bft) S-SW 202 14,6 C 19,1 C 6,4 km/h (2 Bft)
25.09.2021 11:20 19,2 C 75 % 1018,6 hPa 0,0 l/m 1,8 km/h (1 Bft) SW 216 14,7 C 19,2 C 6,4 km/h (2 Bft)
25.09.2021 11:15 19,0 C 76 % 1018,5 hPa 0,0 l/m 0,8 km/h (0 Bft) S-SO 162 14,7 C 19,0 C 3,2 km/h (1 Bft)
25.09.2021 11:10 18,7 C 75 % 1018,6 hPa 0,0 l/m 3,0 km/h (1 Bft) S-SO 159 14,2 C 18,7 C 6,4 km/h (2 Bft)
25.09.2021 11:05 18,4 C 77 % 1018,5 hPa 0,0 l/m 0,0 km/h (0 Bft) S-SW 194 14,3 C 18,4 C 0,0 km/h (0 Bft)
25.09.2021 11:00 18,2 C 77 % 1018,5 hPa 0,0 l/m 0,0 km/h (0 Bft) S-SW 194 14,1 C 18,2 C 0,0 km/h (0 Bft)
25.09.2021 10:55 18,1 C 78 % 1018,4 hPa 0,0 l/m 0,0 km/h (0 Bft) S-SW 193 14,2 C 18,1 C 0,0 km/h (0 Bft)
25.09.2021 10:50 17,8 C 78 % 1018,5 hPa 0,0 l/m 0,0 km/h (0 Bft) S 178 13,9 C 17,8 C 0,0 km/h (0 Bft)
25.09.2021 10:45 17,4 C 80 % 1018,6 hPa 0,0 l/m 1,2 km/h (1 Bft) S-SO 153 13,9 C 17,4 C 4,8 km/h (1 Bft)
25.09.2021 10:40 17,2 C 80 % 1018,6 hPa 0,0 l/m 2,1 km/h (1 Bft) S-SW 198 13,7 C 17,2 C 4,8 km/h (1 Bft)
25.09.2021 10:35 17,1 C 80 % 1018,6 hPa 0,0 l/m 2,0 km/h (1 Bft) S-SW 212 13,6 C 17,1 C 6,4 km/h (2 Bft)
25.09.2021 10:30 17,0 C 81 % 1018,6 hPa 0,0 l/m 1,9 km/h (1 Bft) W-SW 238 13,7 C 17,0 C 4,8 km/h (1 Bft)
25.09.2021 10:25 16,8 C 81 % 1018,5 hPa 0,0 l/m 0,7 km/h (0 Bft) SW 234 13,5 C 16,8 C 6,4 km/h (2 Bft)
25.09.2021 10:20 16,7 C 81 % 1018,5 hPa 0,0 l/m 0,0 km/h (0 Bft) W 260 13,4 C 16,7 C 0,0 km/h (0 Bft)
25.09.2021 10:15 16,6 C 82 % 1018,4 hPa 0,0 l/m 0,0 km/h (0 Bft) W 260 13,5 C 16,6 C 0,0 km/h (0 Bft)
25.09.2021 10:10 16,4 C 83 % 1018,4 hPa 0,0 l/m 0,0 km/h (0 Bft) W 271 13,5 C 16,4 C 0,0 km/h (0 Bft)
25.09.2021 10:05 16,1 C 84 % 1018,3 hPa 0,0 l/m 0,0 km/h (0 Bft) W 271 13,4 C 16,1 C 0,0 km/h (0 Bft)
25.09.2021 10:00 15,9 C 84 % 1018,3 hPa 0,0 l/m 0,0 km/h (0 Bft) W 271 13,2 C 15,9 C 0,0 km/h (0 Bft)
25.09.2021 09:55 15,7 C 85 % 1018,2 hPa 0,0 l/m 0,0 km/h (0 Bft) W 259 13,2 C 15,7 C 0,0 km/h (0 Bft)
25.09.2021 09:50 15,5 C 85 % 1018,1 hPa 0,0 l/m 0,0 km/h (0 Bft) W 259 13,0 C 15,5 C 0,0 km/h (0 Bft)
25.09.2021 09:45 15,3 C 85 % 1018,0 hPa 0,0 l/m 0,0 km/h (0 Bft) W 259 12,8 C 15,3 C 0,0 km/h (0 Bft)
25.09.2021 09:40 14,9 C 87 % 1017,9 hPa 0,0 l/m 0,0 km/h (0 Bft) W-SW 257 12,8 C 14,9 C 0,0 km/h (0 Bft)
25.09.2021 09:35 14,6 C 87 % 1018,0 hPa 0,0 l/m 0,0 km/h (0 Bft) W-SW 257 12,5 C 14,6 C 0,0 km/h (0 Bft)
25.09.2021 09:30 14,3 C 88 % 1017,9 hPa 0,0 l/m 0,0 km/h (0 Bft) W 261 12,3 C 14,3 C 0,0 km/h (0 Bft)
25.09.2021 09:25 14,1 C 88 % 1018,0 hPa 0,0 l/m 0,0 km/h (0 Bft) W 261 12,1 C 14,1 C 0,0 km/h (0 Bft)
25.09.2021 09:20 14,0 C 88 % 1017,9 hPa 0,0 l/m 0,0 km/h (0 Bft) W 261 12,0 C 14,0 C 0,0 km/h (0 Bft)
25.09.2021 09:15 13,9 C 89 % 1018,0 hPa 0,0 l/m 0,1 km/h (0 Bft) W 261 12,1 C 13,9 C 1,6 km/h (1 Bft)
25.09.2021 09:10 13,7 C 90 % 1017,8 hPa 0,0 l/m 0,9 km/h (0 Bft) W 268 12,1 C 13,7 C 6,4 km/h (2 Bft)
25.09.2021 09:05 13,6 C 90 % 1017,8 hPa 0,0 l/m 0,0 km/h (0 Bft) SW 217 12,0 C 13,6 C 0,0 km/h (0 Bft)
25.09.2021 09:00 13,3 C 91 % 1017,9 hPa 0,0 l/m 0,0 km/h (0 Bft) SW 217 11,9 C 13,3 C 0,0 km/h (0 Bft)
25.09.2021 08:55 13,2 C 91 % 1017,9 hPa 0,0 l/m 0,5 km/h (0 Bft) SW 217 11,8 C 13,2 C 3,2 km/h (1 Bft)
25.09.2021 08:50 13,0 C 91 % 1017,9 hPa 0,0 l/m 0,0 km/h (0 Bft) SW 217 11,6 C 13,0 C 0,0 km/h (0 Bft)
25.09.2021 08:45 12,9 C 91 % 1017,8 hPa 0,0 l/m 1,3 km/h (1 Bft) SW 217 11,5 C 12,9 C 4,8 km/h (1 Bft)
25.09.2021 08:40 12,6 C 92 % 1017,8 hPa 0,0 l/m 0,4 km/h (0 Bft) SW 217 11,3 C 12,6 C 4,8 km/h (1 Bft)
25.09.2021 08:35 12,4 C 91 % 1017,7 hPa 0,0 l/m 0,0 km/h (0 Bft) S-SW 194 11,0 C 12,4 C 0,0 km/h (0 Bft)
25.09.2021 08:30 12,4 C 90 % 1017,7 hPa 0,0 l/m 0,0 km/h (0 Bft) S-SW 194 10,8 C 12,4 C 0,0 km/h (0 Bft)
25.09.2021 08:25 12,3 C 90 % 1017,7 hPa 0,0 l/m 0,0 km/h (0 Bft) S-SW 194 10,7 C 12,3 C 0,0 km/h (0 Bft)
25.09.2021 08:20 12,3 C 91 % 1017,7 hPa 0,0 l/m 0,0 km/h (0 Bft) S-SW 194 10,9 C 12,3 C 0,0 km/h (0 Bft)
25.09.2021 08:15 12,3 C 91 % 1017,7 hPa 0,0 l/m 0,0 km/h (0 Bft) S-SW 194 10,9 C 12,3 C 0,0 km/h (0 Bft)
25.09.2021 08:10 12,2 C 92 % 1017,7 hPa 0,0 l/m 1,1 km/h (1 Bft) S-SW 194 10,9 C 12,2 C 3,2 km/h (1 Bft)
25.09.2021 08:05 12,0 C 92 % 1017,7 hPa 0,0 l/m 2,6 km/h (1 Bft) S-SW 193 10,7 C 12,0 C 4,8 km/h (1 Bft)
25.09.2021 08:00 11,8 C 92 % 1017,7 hPa 0,0 l/m 0,2 km/h (0 Bft) S 191 10,5 C 11,8 C 1,6 km/h (1 Bft)
25.09.2021 07:55 11,8 C 93 % 1017,7 hPa 0,0 l/m 0,0 km/h (0 Bft) S 191 10,7 C 11,8 C 1,6 km/h (1 Bft)
25.09.2021 07:50 11,8 C 93 % 1017,7 hPa 0,0 l/m 0,7 km/h (0 Bft) S 191 10,7 C 11,8 C 3,2 km/h (1 Bft)
25.09.2021 07:45 11,6 C 93 % 1017,6 hPa 0,0 l/m 2,1 km/h (1 Bft) S 188 10,5 C 11,6 C 4,8 km/h (1 Bft)
25.09.2021 07:40 11,4 C 93 % 1017,6 hPa 0,0 l/m 0,3 km/h (0 Bft) SW 228 10,3 C 11,4 C 3,2 km/h (1 Bft)
25.09.2021 07:35 11,2 C 94 % 1017,7 hPa 0,0 l/m 0,5 km/h (0 Bft) SW 218 10,3 C 11,2 C 3,2 km/h (1 Bft)
25.09.2021 07:30 10,8 C 93 % 1017,7 hPa 0,0 l/m 0,1 km/h (0 Bft) S 190 9,7 C 10,8 C 1,6 km/h (1 Bft)
25.09.2021 07:25 10,6 C 91 % 1017,8 hPa 0,0 l/m 0,0 km/h (0 Bft) SW 232 9,2 C 10,6 C 0,0 km/h (0 Bft)
25.09.2021 07:20 10,7 C 90 % 1017,7 hPa 0,0 l/m 0,0 km/h (0 Bft) SW 232 9,1 C 10,7 C 0,0 km/h (0 Bft)
25.09.2021 07:15 10,8 C 90 % 1017,6 hPa 0,0 l/m 0,0 km/h (0 Bft) SW 232 9,2 C 10,8 C 0,0 km/h (0 Bft)
25.09.2021 07:10 11,0 C 89 % 1017,6 hPa 0,0 l/m 0,0 km/h (0 Bft) SW 232 9,3 C 11,0 C 0,0 km/h (0 Bft)
25.09.2021 07:05 11,3 C 89 % 1017,8 hPa 0,0 l/m 0,0 km/h (0 Bft) SW 232 9,6 C 11,3 C 0,0 km/h (0 Bft)
25.09.2021 07:00 11,6 C 89 % 1017,6 hPa 0,0 l/m 0,0 km/h (0 Bft) SW 232 9,8 C 11,6 C 0,0 km/h (0 Bft)
25.09.2021 06:55 11,9 C 91 % 1017,6 hPa 0,0 l/m 0,0 km/h (0 Bft) SW 232 10,5 C 11,9 C 0,0 km/h (0 Bft)
25.09.2021 06:50 12,0 C 92 % 1017,7 hPa 0,0 l/m 0,0 km/h (0 Bft) SW 232 10,7 C 12,0 C 0,0 km/h (0 Bft)
25.09.2021 06:45 11,9 C 92 % 1017,7 hPa 0,0 l/m 0,0 km/h (0 Bft) SW 232 10,6 C 11,9 C 0,0 km/h (0 Bft)
25.09.2021 06:40 12,0 C 92 % 1017,7 hPa 0,0 l/m 0,0 km/h (0 Bft) SW 232 10,7 C 12,0 C 0,0 km/h (0 Bft)
25.09.2021 06:35 12,0 C 92 % 1017,8 hPa 0,0 l/m 0,0 km/h (0 Bft) SW 232 10,7 C 12,0 C 0,0 km/h (0 Bft)
25.09.2021 06:30 11,9 C 92 % 1017,8 hPa 0,0 l/m 0,0 km/h (0 Bft) SW 232 10,6 C 11,9 C 0,0 km/h (0 Bft)
25.09.2021 06:25 11,8 C 92 % 1017,8 hPa 0,0 l/m 0,0 km/h (0 Bft) SW 232 10,5 C 11,8 C 0,0 km/h (0 Bft)
25.09.2021 06:20 11,8 C 92 % 1017,8 hPa 0,0 l/m 0,0 km/h (0 Bft) SW 232 10,5 C 11,8 C 0,0 km/h (0 Bft)
25.09.2021 06:15 11,7 C 92 % 1017,8 hPa 0,0 l/m 0,0 km/h (0 Bft) SW 232 10,4 C 11,7 C 0,0 km/h (0 Bft)
25.09.2021 06:10 11,7 C 90 % 1017,8 hPa 0,0 l/m 0,0 km/h (0 Bft) SW 232 10,1 C 11,7 C 0,0 km/h (0 Bft)
25.09.2021 06:05 11,8 C 91 % 1017,8 hPa 0,0 l/m 0,0 km/h (0 Bft) SW 232 10,4 C 11,8 C 0,0 km/h (0 Bft)
25.09.2021 06:00 11,9 C 91 % 1017,8 hPa 0,0 l/m 0,0 km/h (0 Bft) SW 232 10,5 C 11,9 C 0,0 km/h (0 Bft)
25.09.2021 05:55 11,9 C 91 % 1017,8 hPa 0,0 l/m 0,0 km/h (0 Bft) SW 232 10,5 C 11,9 C 0,0 km/h (0 Bft)
25.09.2021 05:50 12,0 C 90 % 1017,7 hPa 0,0 l/m 0,0 km/h (0 Bft) SW 232 10,4 C 12,0 C 0,0 km/h (0 Bft)
25.09.2021 05:45 12,2 C 90 % 1017,7 hPa 0,0 l/m 0,0 km/h (0 Bft) SW 232 10,6 C 12,2 C 0,0 km/h (0 Bft)
25.09.2021 05:40 12,3 C 90 % 1017,8 hPa 0,0 l/m 0,0 km/h (0 Bft) SW 232 10,7 C 12,3 C 0,0 km/h (0 Bft)
25.09.2021 05:35 12,3 C 91 % 1017,8 hPa 0,0 l/m 0,0 km/h (0 Bft) SW 232 10,9 C 12,3 C 0,0 km/h (0 Bft)
25.09.2021 05:30 12,3 C 91 % 1017,8 hPa 0,0 l/m 0,0 km/h (0 Bft) SW 232 10,9 C 12,3 C 0,0 km/h (0 Bft)
25.09.2021 05:25 12,3 C 91 % 1017,7 hPa 0,0 l/m 0,0 km/h (0 Bft) SW 232 10,9 C 12,3 C 0,0 km/h (0 Bft)
25.09.2021 05:20 12,3 C 92 % 1017,8 hPa 0,0 l/m 0,0 km/h (0 Bft) SW 232 11,0 C 12,3 C 0,0 km/h (0 Bft)
25.09.2021 05:15 12,1 C 92 % 1017,7 hPa 0,0 l/m 0,0 km/h (0 Bft) SW 232 10,8 C 12,1 C 0,0 km/h (0 Bft)
25.09.2021 05:10 11,9 C 92 % 1017,8 hPa 0,0 l/m 0,0 km/h (0 Bft) SW 232 10,6 C 11,9 C 0,0 km/h (0 Bft)
25.09.2021 05:05 11,7 C 93 % 1017,8 hPa 0,0 l/m 0,0 km/h (0 Bft) SW 232 10,6 C 11,7 C 0,0 km/h (0 Bft)
25.09.2021 05:00 11,4 C 91 % 1017,8 hPa 0,0 l/m 0,0 km/h (0 Bft) SW 233 10,0 C 11,4 C 0,0 km/h (0 Bft)
25.09.2021 04:55 11,4 C 91 % 1017,8 hPa 0,0 l/m 0,0 km/h (0 Bft) SW 233 10,0 C 11,4 C 0,0 km/h (0 Bft)
25.09.2021 04:50 11,5 C 91 % 1017,8 hPa 0,0 l/m 0,0 km/h (0 Bft) SW 233 10,1 C 11,5 C 0,0 km/h (0 Bft)
25.09.2021 04:45 11,6 C 91 % 1017,7 hPa 0,0 l/m 0,0 km/h (0 Bft) SW 233 10,2 C 11,6 C 0,0 km/h (0 Bft)
25.09.2021 04:40 11,7 C 91 % 1017,8 hPa 0,0 l/m 0,0 km/h (0 Bft) SW 233 10,3 C 11,7 C 0,0 km/h (0 Bft)
25.09.2021 04:35 11,6 C 91 % 1017,9 hPa 0,0 l/m 0,0 km/h (0 Bft) SW 233 10,2 C 11,6 C 0,0 km/h (0 Bft)
25.09.2021 04:30 11,6 C 91 % 1018,0 hPa 0,0 l/m 0,0 km/h (0 Bft) SW 233 10,2 C 11,6 C 0,0 km/h (0 Bft)
25.09.2021 04:25 11,6 C 91 % 1017,9 hPa 0,0 l/m 0,0 km/h (0 Bft) SW 233 10,2 C 11,6 C 0,0 km/h (0 Bft)
25.09.2021 04:20 11,6 C 92 % 1018,0 hPa 0,0 l/m 0,0 km/h (0 Bft) SW 233 10,3 C 11,6 C 0,0 km/h (0 Bft)
25.09.2021 04:15 11,4 C 90 % 1018,0 hPa 0,0 l/m 0,0 km/h (0 Bft) SW 233 9,8 C 11,4 C 0,0 km/h (0 Bft)
25.09.2021 04:10 11,6 C 90 % 1018,0 hPa 0,0 l/m 0,0 km/h (0 Bft) SW 233 10,0 C 11,6 C 0,0 km/h (0 Bft)
25.09.2021 04:05 11,6 C 90 % 1017,9 hPa 0,0 l/m 0,0 km/h (0 Bft) SW 233 10,0 C 11,6 C 0,0 km/h (0 Bft)
25.09.2021 04:00 11,6 C 90 % 1017,9 hPa 0,0 l/m 0,0 km/h (0 Bft) SW 233 10,0 C 11,6 C 0,0 km/h (0 Bft)
_ Min-Zeit 07:25 14:20 03:00 - 04:00 - - 07:20 07:25 04:00
Minimum _ 10,6 C 55 % 1015,3 hPa - 0,0 km/h (0 Bft) - - 9,1 C 10,6 C 0,0 km/h (0 Bft)
_ Max-Zeit 16:40 07:35 10:30 04:00 15:30 - - 16:35 14:50 13:20
Maximum _ 24,5 C 94 % 1018,6 hPa 0,0 l/m 4,4 km/h
O-SO (1 Bft)
- - 16,1 C 24,4 C 12,9 km/h
O-NO (3 Bft)
Durchschnitt _ 16,9 C 78 % 1017,0 hPa #0,0 l/m 0,8 km/h (0 Bft) S - 12,8 C 16,9 C 2,7 km/h (1 Bft)
www.klaudt.eu